Fort Eustis, Virginia
Current Conditions -  °F | °C
As of 1:58 PM on Thursday 30 Oct 2014 (Local Time) from KFAF Reporting Station
Clear Clear  
Wind Chill: 64°   Ceiling: Unl
Heat Index: 64°   Visibility: 10mi
Dew Point: 45°   Wind: 8mph
Humidity: 52%   Direction: 330°NNW
Pressure: 29.99"   Gusts: NA
Location:  37.13°N, 76.61°W
Report Text: KFAF 301758Z AUTO 33007KT 10SM CLR 18/07 A2999 RMK AO2 SLP159 T01750074 10176 20116 58017 $
Loading
Personal Weather Stations






























Interactive Weather Map New forecast layout! Learn more

10-Day Weather Forecast

Advertisements
Track Severe Weather on mobile